MV Puyallup — WCY7938 — position and weather

sailwx.info

Track history (hours):
 
Tides and Currents Weather Stations Pressure Air Temp Water Temp Dewpoint Dewpoint Depression Visibility Wind Speed Wind Dir Waves Ship Positions

MV Puyallup

Owner: WASHINGTON, STATE OF; DOT, OLYMPIA, WA. More information available from US FCC via Universal Licensing System and Coast Guard Vessel Documentation Center.

Last reported at 2018-Jun-22 17:00 UTC. Time now 2018-Jun-22 17:02 UTC.
Position N 47°49' W 122°23'.

Length 140 m; draft 5.6 m.

Type: Passenger vessel. MMSI: 366759130.

Date/timePositionNaut miles runAvg speedWind from/ knotsBaromVisibWave heightAir tempDewpointWater temp
2018-Jun-22 17:00N 47°49' W 122°23'4 8.9
2018-Jun-22 16:30N 47°48' W 122°30'3 5.5
2018-Jun-22 16:00N 47°49' W 122°26'2 3.6
2018-Jun-22 15:30N 47°49' W 122°23'4 7.4
2018-Jun-22 15:00N 47°48' W 122°28'1 1.6
2018-Jun-22 14:30N 47°48' W 122°30'4 8.9
2018-Jun-22 14:00N 47°49' W 122°23'4 7.7
2018-Jun-22 13:30N 47°47' W 122°28'1 1.6
2018-Jun-22 13:00N 47°48' W 122°30'4 9.1
2018-Jun-22 12:30N 47°49' W 122°23'4 8.2
2018-Jun-22 12:01N 47°47' W 122°29'1 1.0
2018-Jun-22 11:30N 47°48' W 122°30'0 0.0
2018-Jun-22 11:00N 47°48' W 122°30'0 0.0
2018-Jun-22 10:30N 47°48' W 122°30'0 0.0
2018-Jun-22 09:59N 47°48' W 122°30'0 0.0
2018-Jun-22 09:30N 47°48' W 122°30'0 0.0
2018-Jun-22 09:00N 47°48' W 122°30'0 0.0
2018-Jun-22 08:30N 47°48' W 122°30'0 0.0
2018-Jun-22 08:00N 47°48' W 122°30'0 0.0
2018-Jun-22 07:30N 47°48' W 122°30'0 0.0
2018-Jun-22 07:00N 47°48' W 122°30'0 0.0
2018-Jun-22 06:30N 47°48' W 122°30'0 0.0
2018-Jun-22 05:58N 47°48' W 122°30'0 0.0
2018-Jun-22 05:30N 47°48' W 122°30'0 0.0
2018-Jun-22 04:59N 47°48' W 122°30'0 0.0
2018-Jun-22 04:30N 47°48' W 122°30'4 9.0
2018-Jun-22 04:01N 47°49' W 122°23'2 4.3
2018-Jun-22 03:31N 47°48' W 122°26'2 3.6
2018-Jun-22 03:01N 47°48' W 122°29'4 7.8
2018-Jun-22 02:30N 47°49' W 122°23'4 9.0
2018-Jun-22 02:00N 47°48' W 122°30'4 7.1
2018-Jun-22 01:30N 47°49' W 122°25'1 1.9
2018-Jun-22 01:00N 47°49' W 122°23'4 8.4
2018-Jun-22 00:28N 47°48' W 122°30'3 6.5
2018-Jun-22 00:00N 47°48' W 122°25'1 3.0
2018-Jun-21 23:30N 47°49' W 122°23'4 8.5
2018-Jun-21 22:59N 47°48' W 122°30'2 4.8
2018-Jun-21 22:30N 47°49' W 122°27'2 4.5
2018-Jun-21 22:00N 47°49' W 122°23'4 9.0
2018-Jun-21 21:30N 47°48' W 122°30'0 0.6
2018-Jun-21 21:00N 47°48' W 122°29'4 8.4
2018-Jun-21 20:30N 47°49' W 122°23'3 6.4
2018-Jun-21 20:00N 47°48' W 122°28'1 2.8
2018-Jun-21 19:30N 47°48' W 122°30'4 8.9
2018-Jun-21 19:00N 47°49' W 122°23'2 3.9
2018-Jun-21 18:31N 47°48' W 122°26'3 5.1
2018-Jun-21 18:00N 47°48' W 122°30'4 9.1
2018-Jun-21 17:30N 47°49' W 122°23'0 0.4
2018-Jun-21 17:00N 47°49' W 122°23'4 8.6
2018-Jun-21 16:30N 47°48' W 122°30'2 4.7
2018-Jun-21 16:00N 47°48' W 122°26'2 4.3
2018-Jun-21 15:30N 47°49' W 122°23'4 7.4
2018-Jun-21 15:00N 47°47' W 122°28'1 1.7
2018-Jun-21 14:31N 47°48' W 122°29'4 8.8
2018-Jun-21 14:01N 47°49' W 122°23'4 7.3
2018-Jun-21 13:31N 47°48' W 122°28'1 1.8
2018-Jun-21 13:00N 47°48' W 122°30'4 9.1
2018-Jun-21 12:30N 47°49' W 122°23'4 8.5
2018-Jun-21 12:00N 47°48' W 122°29'0 0.7
2018-Jun-21 11:30N 47°48' W 122°30'0 0.0
2018-Jun-21 11:01N 47°48' W 122°30'0 0.0
2018-Jun-21 10:30N 47°48' W 122°30'0 0.0
2018-Jun-21 10:01N 47°48' W 122°30'0 0.0
2018-Jun-21 09:30N 47°48' W 122°30'0 0.0
2018-Jun-21 09:00N 47°48' W 122°30'0 0.0
2018-Jun-21 08:30N 47°48' W 122°30'0 0.0
2018-Jun-21 08:01N 47°48' W 122°30'0 0.0
2018-Jun-21 07:30N 47°48' W 122°30'0 0.0
2018-Jun-21 07:01N 47°48' W 122°30'0 0.0
2018-Jun-21 06:31N 47°48' W 122°30'0 0.0
2018-Jun-21 06:00N 47°48' W 122°30'0 0.0
2018-Jun-21 05:31N 47°48' W 122°30'0 0.0
2018-Jun-21 05:01N 47°48' W 122°30'0 0.0
2018-Jun-21 04:29N 47°48' W 122°30'4 9.3
2018-Jun-21 04:00N 47°49' W 122°23'3 6.9
2018-Jun-21 03:31N 47°48' W 122°28'1 1.1
2018-Jun-21 03:01N 47°48' W 122°27'3 6.0
2018-Jun-21 02:30N 47°49' W 122°23'4 9.0
2018-Jun-21 02:00N 47°48' W 122°30'4 7.3
2018-Jun-21 01:30N 47°49' W 122°24'1 1.7
2018-Jun-21 01:00N 47°49' W 122°23'4 8.9
2018-Jun-21 00:30N 47°48' W 122°30'4 7.4
2018-Jun-21 00:00N 47°49' W 122°25'1 1.9
2018-Jun-20 23:30N 47°49' W 122°23'4 9.0
2018-Jun-20 23:00N 47°48' W 122°30'3 6.5
2018-Jun-20 22:30N 47°49' W 122°25'1 2.6
2018-Jun-20 22:00N 47°49' W 122°23'4 9.0
2018-Jun-20 21:30N 47°48' W 122°30'1 1.3
2018-Jun-20 21:00N 47°47' W 122°29'4 8.0
2018-Jun-20 20:31N 47°49' W 122°23'3 5.8
2018-Jun-20 20:01N 47°48' W 122°27'2 3.5
2018-Jun-20 19:31N 47°48' W 122°30'4 9.0
2018-Jun-20 19:00N 47°49' W 122°23'1 1.6
2018-Jun-20 18:30N 47°49' W 122°24'4 7.3
2018-Jun-20 18:00N 47°48' W 122°30'4 9.0
2018-Jun-20 17:30N 47°49' W 122°23'0 0.4
2018-Jun-20 17:01N 47°49' W 122°23'4 8.6
2018-Jun-20 16:30N 47°48' W 122°30'2 4.7
2018-Jun-20 16:00N 47°48' W 122°26'2 4.3
2018-Jun-20 15:30N 47°49' W 122°23'4 8.8
2018-Jun-20 15:00N 47°48' W 122°30'0 0.2
2018-Jun-20 14:30N 47°48' W 122°29'4 8.7
2018-Jun-20 14:00N 47°49' W 122°23'4 7.9
2018-Jun-20 13:31N 47°48' W 122°29'1 1.3
2018-Jun-20 12:59N 47°48' W 122°30'4 9.4
2018-Jun-20 12:31N 47°49' W 122°23'4 8.5
2018-Jun-20 12:00N 47°48' W 122°29'0 0.7
2018-Jun-20 11:30N 47°48' W 122°30'0 0.0
2018-Jun-20 10:59N 47°48' W 122°30'0 0.0
2018-Jun-20 10:30N 47°48' W 122°30'0 0.0
2018-Jun-20 10:00N 47°48' W 122°30'0 0.0
2018-Jun-20 09:30N 47°48' W 122°30'0 0.0
2018-Jun-20 09:00N 47°48' W 122°30'0 0.0
2018-Jun-20 08:30N 47°48' W 122°30'0 0.0
2018-Jun-20 08:00N 47°48' W 122°30'0 0.0
2018-Jun-20 07:30N 47°48' W 122°30'0 0.0
2018-Jun-20 07:00N 47°48' W 122°30'0 0.0
2018-Jun-20 06:30N 47°48' W 122°30'0 0.0
2018-Jun-20 06:00N 47°48' W 122°30'0 0.0
2018-Jun-20 05:30N 47°48' W 122°30'0 0.0
2018-Jun-20 05:00N 47°48' W 122°30'0 0.0
2018-Jun-20 04:30N 47°48' W 122°30'4 9.0
2018-Jun-20 04:00N 47°49' W 122°23'3 5.1
2018-Jun-20 03:30N 47°48' W 122°27'1 2.3
2018-Jun-20 03:00N 47°48' W 122°28'4 7.3
2018-Jun-20 02:30N 47°49' W 122°23'4 9.0
2018-Jun-20 02:00N 47°48' W 122°30'4 8.8
2018-Jun-20 01:30N 47°49' W 122°23'0 0.2
2018-Jun-20 01:00N 47°49' W 122°23'4 8.8
2018-Jun-20 00:30N 47°48' W 122°30'3 5.8
2018-Jun-20 00:00N 47°49' W 122°26'2 3.2
2018-Jun-19 23:30N 47°49' W 122°23'4 9.0
2018-Jun-19 23:00N 47°48' W 122°30'2 3.8
2018-Jun-19 22:30N 47°49' W 122°27'3 5.3
2018-Jun-19 22:01N 47°49' W 122°23'4 9.0
2018-Jun-19 21:30N 47°48' W 122°30'0 0.0
2018-Jun-19 21:00N 47°48' W 122°30'4 9.1
2018-Jun-19 20:30N 47°49' W 122°23'3 6.5
2018-Jun-19 20:01N 47°48' W 122°28'1 2.7
2018-Jun-19 19:30N 47°48' W 122°30'4 9.0
2018-Jun-19 19:01N 47°49' W 122°23'1 1.8
2018-Jun-19 18:30N 47°49' W 122°24'4 6.8
2018-Jun-19 17:58N 47°48' W 122°30'4 9.9
2018-Jun-19 17:30N 47°49' W 122°23'0 0.1
2018-Jun-19 17:01N 47°49' W 122°23'4 8.6
2018-Jun-19 16:29N 47°48' W 122°30'2 4.9
2018-Jun-19 16:01N 47°48' W 122°26'2 4.3
2018-Jun-19 15:31N 47°49' W 122°23'4 7.7
2018-Jun-19 15:01N 47°48' W 122°29'1 1.4
2018-Jun-19 14:31N 47°48' W 122°30'4 8.9
2018-Jun-19 14:00N 47°49' W 122°23'4 7.7
2018-Jun-19 13:30N 47°48' W 122°29'1 1.4
2018-Jun-19 12:59N 47°48' W 122°30'4 9.4
2018-Jun-19 12:30N 47°49' W 122°23'3 6.9
2018-Jun-19 12:00N 47°48' W 122°28'1 2.0
2018-Jun-19 11:29N 47°48' W 122°30'0 0.0
2018-Jun-19 11:00N 47°48' W 122°30'0 0.0
2018-Jun-19 10:30N 47°48' W 122°30'0 0.0
2018-Jun-19 10:00N 47°48' W 122°30'0 0.0
2018-Jun-19 09:30N 47°48' W 122°30'0 0.0
2018-Jun-19 09:00N 47°48' W 122°30'0 0.0
2018-Jun-19 08:30N 47°48' W 122°30'0 0.0
2018-Jun-19 08:00N 47°48' W 122°30'0 0.0
2018-Jun-19 07:30N 47°48' W 122°30'1 1.6
2018-Jun-19 07:00N 47°48' W 122°28'4 7.4
2018-Jun-19 06:30N 47°49' W 122°23'4 8.8
2018-Jun-19 06:00N 47°48' W 122°30'4 7.5
2018-Jun-19 05:30N 47°49' W 122°24'1 1.5
2018-Jun-19 05:00N 47°49' W 122°23'4 8.7
2018-Jun-19 04:30N 47°48' W 122°30'4 9.1
2018-Jun-19 04:00N 47°49' W 122°23'3 6.0
2018-Jun-19 03:30N 47°48' W 122°27'1 2.6
2018-Jun-19 03:01N 47°48' W 122°29'4 8.4
2018-Jun-19 02:30N 47°49' W 122°23'4 9.1
2018-Jun-19 02:00N 47°48' W 122°30'2 4.9
2018-Jun-19 01:31N 47°48' W 122°26'2 4.1
2018-Jun-19 01:00N 47°49' W 122°23'4 8.7
2018-Jun-19 00:30N 47°48' W 122°30'3 6.7
2018-Jun-19 00:01N 47°49' W 122°25'1 2.7
2018-Jun-18 23:30N 47°49' W 122°23'4 8.9
2018-Jun-18 23:00N 47°48' W 122°30'2 4.5
2018-Jun-18 22:30N 47°48' W 122°26'2 4.5
2018-Jun-18 22:00N 47°49' W 122°23'4 9.0
2018-Jun-18 21:31N 47°48' W 122°30'0 0.1
2018-Jun-18 21:00N 47°48' W 122°30'4 9.2
2018-Jun-18 20:30N 47°49' W 122°23'3 5.2
2018-Jun-18 20:01N 47°48' W 122°27'2 3.8
2018-Jun-18 19:30N 47°48' W 122°30'4 9.2
2018-Jun-18 19:00N 47°49' W 122°23'1 2.1
2018-Jun-18 18:30N 47°49' W 122°25'4 6.9
2018-Jun-18 18:00N 47°48' W 122°30'4 9.2
2018-Jun-18 17:31N 47°49' W 122°23'0 0.0
2018-Jun-18 17:01N 47°49' W 122°23'4 8.6
2018-Jun-18 16:29N 47°48' W 122°30'3 7.1
2018-Jun-18 16:00N 47°49' W 122°25'1 2.2
2018-Jun-18 15:30N 47°49' W 122°23'4 7.7
2018-Jun-18 15:00N 47°47' W 122°28'1 1.5
2018-Jun-18 14:30N 47°48' W 122°30'4 8.9
2018-Jun-18 14:00N 47°49' W 122°23'4 7.6
2018-Jun-18 13:30N 47°47' W 122°28'1 1.7
2018-Jun-18 13:00N 47°48' W 122°30'4 9.1
2018-Jun-18 12:30N 47°49' W 122°23'4 7.6
2018-Jun-18 12:00N 47°48' W 122°28'1 1.5
2018-Jun-18 11:30N 47°48' W 122°30'0 0.0
2018-Jun-18 11:00N 47°48' W 122°30'0 0.0
2018-Jun-18 10:29N 47°48' W 122°30'0 0.0
2018-Jun-18 10:01N 47°48' W 122°30'0 0.0
2018-Jun-18 09:31N 47°48' W 122°30'0 0.0
2018-Jun-18 09:00N 47°48' W 122°30'0 0.0
2018-Jun-18 08:30N 47°48' W 122°30'0 0.0
2018-Jun-18 08:00N 47°48' W 122°30'0 0.0
2018-Jun-18 07:29N 47°48' W 122°30'4 8.3
2018-Jun-18 07:01N 47°49' W 122°24'3 5.5
2018-Jun-18 06:30N 47°48' W 122°28'1 1.6
2018-Jun-18 06:00N 47°47' W 122°27'3 5.9
2018-Jun-18 05:30N 47°49' W 122°23'4 9.0
2018-Jun-18 05:00N 47°48' W 122°30'2 4.0
2018-Jun-18 04:30N 47°48' W 122°27'3 5.3
2018-Jun-18 04:00N 47°49' W 122°23'4 9.0
2018-Jun-18 03:30N 47°48' W 122°30'2 3.2
2018-Jun-18 03:01N 47°48' W 122°27'3 5.8
2018-Jun-18 02:30N 47°49' W 122°23'4 8.8
2018-Jun-18 02:00N 47°48' W 122°30'1 2.6
2018-Jun-18 01:31N 47°48' W 122°28'3 6.6
2018-Jun-18 01:00N 47°49' W 122°23'4 8.9
2018-Jun-18 00:30N 47°48' W 122°30'1 2.9
2018-Jun-18 00:00N 47°47' W 122°28'3 6.6
2018-Jun-17 23:30N 47°49' W 122°23'4 9.0
2018-Jun-17 23:00N 47°48' W 122°30'2 3.7
2018-Jun-17 22:31N 47°48' W 122°27'3 5.3
2018-Jun-17 22:01N 47°49' W 122°23'4 9.0
2018-Jun-17 21:30N 47°48' W 122°30'0 0.5
2018-Jun-17 21:01N 47°48' W 122°29'4 8.6
2018-Jun-17 20:31N 47°49' W 122°23'3 6.1
2018-Jun-17 20:00N 47°48' W 122°27'1 3.0
2018-Jun-17 19:31N 47°48' W 122°30'4 9.0
2018-Jun-17 19:00N 47°49' W 122°23'1 2.4
2018-Jun-17 18:30N 47°49' W 122°25'3 6.6
2018-Jun-17 18:00N 47°48' W 122°30'4 9.0
2018-Jun-17 17:30N 47°49' W 122°23'0 0.0
2018-Jun-17 17:00N 47°49' W 122°23'4 8.9
2018-Jun-17 16:30N 47°48' W 122°30'3 5.2
2018-Jun-17 16:00N 47°48' W 122°26'2 3.8
2018-Jun-17 15:30N 47°49' W 122°23'4 7.9
2018-Jun-17 15:00N 47°47' W 122°29'1 1.6
2018-Jun-17 14:30N 47°48' W 122°30'4 9.0
2018-Jun-17 14:00N 47°49' W 122°23'4 7.6
2018-Jun-17 13:30N 47°48' W 122°28'1 1.6
2018-Jun-17 12:59N 47°48' W 122°30'0 0.0
2018-Jun-17 12:30N 47°48' W 122°30'0 0.0
2018-Jun-17 12:00N 47°48' W 122°30'0 0.0
2018-Jun-17 11:30N 47°48' W 122°30'0 0.0
2018-Jun-17 11:00N 47°48' W 122°30'0 0.0
2018-Jun-17 10:30N 47°48' W 122°30'0 0.0
2018-Jun-17 10:00N 47°48' W 122°30'0 0.0
2018-Jun-17 09:30N 47°48' W 122°30'0 0.0
2018-Jun-17 09:00N 47°48' W 122°30'0 0.0
2018-Jun-17 08:30N 47°48' W 122°30'0 0.0
2018-Jun-17 08:00N 47°48' W 122°30'0 0.1
2018-Jun-17 07:30N 47°48' W 122°30'4 8.6
2018-Jun-17 07:01N 47°49' W 122°24'4 8.6
2018-Jun-17 06:30N 47°48' W 122°30'0 0.0
2018-Jun-17 05:56N 47°48' W 122°30'0 0.0
2018-Jun-17 05:24N 47°48' W 122°30'0 0.0
2018-Jun-17 05:00N 47°48' W 122°30'4 8.5
2018-Jun-17 04:31N 47°49' W 122°24'0 0.9
2018-Jun-17 04:00N 47°49' W 122°23'4 8.6
2018-Jun-17 03:29N 47°48' W 122°30'3 6.8
2018-Jun-17 03:01N 47°49' W 122°25'1 2.6
2018-Jun-17 02:30N 47°49' W 122°23'4 9.0
2018-Jun-17 02:00N 47°48' W 122°30'2 4.8
2018-Jun-17 01:30N 47°49' W 122°26'2 4.3
2018-Jun-17 01:01N 47°49' W 122°23'4 8.1
2018-Jun-17 00:27N 47°48' W 122°30'3 6.3
2018-Jun-17 00:00N 47°49' W 122°26'2 3.4
2018-Jun-16 23:31N 47°49' W 122°23'4 9.0
2018-Jun-16 23:00N 47°48' W 122°30'4 7.0
2018-Jun-16 22:31N 47°49' W 122°25'1 2.0
2018-Jun-16 22:00N 47°49' W 122°23'4 8.9
2018-Jun-16 21:30N 47°48' W 122°30'1 2.2
2018-Jun-16 21:00N 47°48' W 122°28'3 6.9
2018-Jun-16 20:30N 47°49' W 122°23'3 6.4
2018-Jun-16 20:00N 47°48' W 122°28'1 2.7
2018-Jun-16 19:30N 47°48' W 122°30'4 9.1
2018-Jun-16 19:01N 47°49' W 122°23'1 2.0
2018-Jun-16 18:31N 47°49' W 122°25'4 7.0
2018-Jun-16 18:00N 47°48' W 122°30'4 8.9
2018-Jun-16 17:30N 47°49' W 122°23'0 0.2
2018-Jun-16 17:00N 47°49' W 122°23'4 8.8
2018-Jun-16 16:30N 47°48' W 122°30'3 5.3
2018-Jun-16 16:00N 47°48' W 122°26'2 3.9
2018-Jun-16 15:30N 47°49' W 122°23'4 7.8
2018-Jun-16 15:00N 47°47' W 122°29'1 1.6
2018-Jun-16 14:30N 47°48' W 122°30'4 9.0
2018-Jun-16 14:00N 47°49' W 122°23'4 7.6
2018-Jun-16 13:30N 47°47' W 122°28'1 2.0
2018-Jun-16 13:00N 47°48' W 122°30'0 0.0
2018-Jun-16 12:30N 47°48' W 122°30'3 5.5
2018-Jun-16 12:00N 47°46' W 122°27'816.7
2018-Jun-16 11:30N 47°37' W 122°25'4 7.2
2018-Jun-16 11:00N 47°35' W 122°21'0 0.0
2018-Jun-16 10:31N 47°35' W 122°21'0 0.0
2018-Jun-16 10:00N 47°35' W 122°21'0 0.1
2018-Jun-16 09:31N 47°35' W 122°21'612.2
2018-Jun-16 09:00N 47°40' W 122°27'816.1
2018-Jun-16 08:31N 47°48' W 122°29'4 8.0
2018-Jun-16 08:00N 47°49' W 122°23'1 3.0
2018-Jun-16 07:30N 47°49' W 122°25'3 5.4
2018-Jun-16 07:00N 47°48' W 122°29'4 8.2
2018-Jun-16 06:30N 47°49' W 122°23'4 8.9
2018-Jun-16 06:00N 47°48' W 122°30'3 7.0
2018-Jun-16 05:30N 47°49' W 122°25'1 1.8
2018-Jun-16 05:01N 47°48' W 122°25'2 4.2
2018-Jun-16 04:31N 47°47' W 122°28'4 7.5
2018-Jun-16 04:01N 47°49' W 122°23'4 8.9
2018-Jun-16 03:30N 47°48' W 122°30'4 7.8
2018-Jun-16 03:01N 47°49' W 122°24'1 1.2
2018-Jun-16 02:30N 47°49' W 122°23'4 9.0
2018-Jun-16 02:00N 47°48' W 122°30'4 7.8
2018-Jun-16 01:30N 47°49' W 122°24'1 1.4
2018-Jun-16 01:00N 47°49' W 122°23'4 8.9
2018-Jun-16 00:30N 47°48' W 122°30'3 6.8
2018-Jun-16 00:00N 47°48' W 122°25'1 2.3
2018-Jun-15 23:30N 47°49' W 122°23'4 8.4
2018-Jun-15 22:58N 47°48' W 122°30'2 4.6
2018-Jun-15 22:31N 47°48' W 122°27'2 4.7
2018-Jun-15 22:00N 47°49' W 122°23'4 9.1
2018-Jun-15 21:30N 47°48' W 122°30'0 0.5
2018-Jun-15 21:00N 47°48' W 122°29'4 8.6
2018-Jun-15 20:30N 47°49' W 122°23'4 8.7
2018-Jun-15 20:01N 47°48' W 122°29'0 0.4
2018-Jun-15 19:30N 47°48' W 122°30'4 9.1
2018-Jun-15 19:01N 47°49' W 122°23'1 1.9
2018-Jun-15 18:30N 47°49' W 122°25'4 7.1
2018-Jun-15 18:00N 47°48' W 122°30'4 9.1
2018-Jun-15 17:30N 47°49' W 122°23'0 0.3
2018-Jun-15 17:00N 47°49' W 122°23'4 8.8
2018-Jun-15 16:31N 47°48' W 122°30'3 5.1
2018-Jun-15 16:00N 47°49' W 122°26'2 3.9
2018-Jun-15 15:30N 47°49' W 122°23'3 6.8
2018-Jun-15 15:00N 47°48' W 122°28'1 2.3
2018-Jun-15 14:30N 47°48' W 122°30'4 9.0
2018-Jun-15 14:00N 47°49' W 122°23'4 7.1
2018-Jun-15 13:30N 47°48' W 122°28'1 2.1
2018-Jun-15 13:00N 47°48' W 122°30'4 9.0
2018-Jun-15 12:30N 47°49' W 122°23'4 7.6
2018-Jun-15 12:00N 47°48' W 122°28'1 1.6
2018-Jun-15 11:31N 47°48' W 122°30'0 0.0
2018-Jun-15 11:01N 47°48' W 122°30'0 0.0
2018-Jun-15 10:30N 47°48' W 122°30'0 0.0
2018-Jun-15 10:00N 47°48' W 122°30'0 0.0
2018-Jun-15 09:30N 47°48' W 122°30'0 0.0
2018-Jun-15 09:00N 47°48' W 122°30'0 0.0
2018-Jun-15 08:30N 47°48' W 122°30'0 0.0
2018-Jun-15 08:00N 47°48' W 122°30'0 0.0
2018-Jun-15 07:30N 47°48' W 122°30'1 1.1
2018-Jun-15 07:00N 47°48' W 122°29'4 8.1
2018-Jun-15 06:30N 47°49' W 122°23'4 9.0
2018-Jun-15 06:00N 47°48' W 122°30'4 8.0
2018-Jun-15 05:31N 47°49' W 122°24'0 0.6
2018-Jun-15 05:01N 47°49' W 122°24'4 8.5
2018-Jun-15 04:30N 47°48' W 122°30'4 9.0
2018-Jun-15 04:01N 47°49' W 122°23'4 7.5
2018-Jun-15 03:30N 47°48' W 122°28'2 4.0
2018-Jun-15 03:01N 47°49' W 122°26'2 3.6
2018-Jun-15 02:30N 47°49' W 122°23'4 8.7
2018-Jun-15 01:59N 47°48' W 122°30'4 8.5
2018-Jun-15 01:30N 47°49' W 122°24'0 0.8
2018-Jun-15 01:01N 47°49' W 122°23'4 8.9
2018-Jun-15 00:30N 47°48' W 122°30'3 5.6
2018-Jun-15 00:00N 47°48' W 122°26'2 3.4
2018-Jun-14 23:30N 47°49' W 122°23'4 9.0
2018-Jun-14 23:00N 47°48' W 122°30'2 3.3
2018-Jun-14 22:30N 47°48' W 122°27'3 5.7
2018-Jun-14 22:00N 47°49' W 122°23'4 8.9
2018-Jun-14 21:30N 47°48' W 122°30'2 3.1
2018-Jun-14 21:00N 47°48' W 122°27'3 6.1
2018-Jun-14 20:30N 47°49' W 122°23'4 8.9
2018-Jun-14 20:00N 47°48' W 122°30'1 2.8
2018-Jun-14 19:30N 47°48' W 122°28'3 6.3
2018-Jun-14 19:00N 47°49' W 122°23'4 7.7
2018-Jun-14 18:30N 47°47' W 122°28'1 1.9
2018-Jun-14 18:00N 47°48' W 122°30'4 9.0
2018-Jun-14 17:30N 47°49' W 122°23'1 1.8
2018-Jun-14 17:00N 47°49' W 122°24'4 7.3
2018-Jun-14 16:30N 47°48' W 122°30'2 4.3
2018-Jun-14 16:00N 47°48' W 122°27'2 4.7
2018-Jun-14 15:30N 47°49' W 122°23'4 7.7
2018-Jun-14 15:00N 47°47' W 122°28'1 1.6
2018-Jun-14 14:30N 47°48' W 122°30'4 9.0
2018-Jun-14 14:00N 47°49' W 122°23'4 7.8
2018-Jun-14 13:30N 47°48' W 122°29'1 1.3
2018-Jun-14 13:00N 47°48' W 122°30'4 9.0
2018-Jun-14 12:30N 47°49' W 122°23'4 8.5
2018-Jun-14 12:00N 47°47' W 122°29'0 0.8
2018-Jun-14 11:30N 47°48' W 122°30'0 0.0
2018-Jun-14 11:00N 47°48' W 122°30'0 0.0
2018-Jun-14 10:30N 47°48' W 122°30'0 0.0
2018-Jun-14 10:00N 47°48' W 122°30'0 0.0
2018-Jun-14 09:30N 47°48' W 122°30'0 0.0
2018-Jun-14 09:00N 47°48' W 122°30'0 0.0
2018-Jun-14 08:30N 47°48' W 122°30'0 0.0
2018-Jun-14 08:00N 47°48' W 122°30'0 0.0
2018-Jun-14 07:30N 47°48' W 122°30'0 0.0
2018-Jun-14 07:00N 47°48' W 122°30'0 0.0
2018-Jun-14 06:30N 47°48' W 122°30'0 0.0
2018-Jun-14 06:00N 47°48' W 122°30'0 0.0
2018-Jun-14 05:30N 47°48' W 122°30'0 0.0
2018-Jun-14 05:00N 47°48' W 122°30'0 0.0
2018-Jun-14 04:29N 47°48' W 122°30'4 9.5
2018-Jun-14 04:00N 47°49' W 122°23'2 4.7
2018-Jun-14 03:30N 47°48' W 122°26'2 4.1
2018-Jun-14 03:00N 47°48' W 122°29'4 8.6
2018-Jun-14 02:30N 47°49' W 122°23'4 8.8
2018-Jun-14 02:00N 47°48' W 122°30'3 6.8
2018-Jun-14 01:30N 47°48' W 122°25'1 2.3
2018-Jun-14 01:00N 47°49' W 122°23'4 8.9
2018-Jun-14 00:30N 47°48' W 122°30'4 7.4
2018-Jun-14 00:00N 47°49' W 122°24'1 1.8
2018-Jun-13 23:30N 47°49' W 122°23'4 8.9
2018-Jun-13 23:00N 47°48' W 122°30'2 4.4
2018-Jun-13 22:31N 47°48' W 122°26'2 4.6
2018-Jun-13 22:00N 47°49' W 122°23'4 9.0
2018-Jun-13 21:30N 47°48' W 122°30'0 0.1
2018-Jun-13 21:00N 47°48' W 122°30'4 8.9
2018-Jun-13 20:30N 47°49' W 122°23'3 5.4
2018-Jun-13 20:01N 47°48' W 122°27'2 3.6
2018-Jun-13 19:30N 47°48' W 122°30'4 9.0
2018-Jun-13 19:00N 47°49' W 122°23'2 4.1
2018-Jun-13 18:30N 47°48' W 122°26'2 4.9
2018-Jun-13 18:00N 47°48' W 122°30'4 9.0
2018-Jun-13 17:31N 47°49' W 122°23'0 0.0
2018-Jun-13 17:00N 47°49' W 122°23'4 8.9
2018-Jun-13 16:30N 47°48' W 122°30'2 4.8
2018-Jun-13 16:00N 47°49' W 122°26'2 4.3
2018-Jun-13 15:31N 47°49' W 122°23'4 7.1
2018-Jun-13 15:00N 47°48' W 122°28'1 1.7
2018-Jun-13 14:30N 47°48' W 122°29'4 8.7
2018-Jun-13 14:00N 47°49' W 122°23'4 7.5
2018-Jun-13 13:30N 47°48' W 122°28'1 1.4
2018-Jun-13 13:00N 47°48' W 122°29'4 8.5
2018-Jun-13 12:29N 47°49' W 122°23'4 8.3
2018-Jun-13 12:00N 47°48' W 122°29'1 1.2
2018-Jun-13 11:30N 47°48' W 122°30'0 0.0
2018-Jun-13 11:00N 47°48' W 122°30'0 0.0
2018-Jun-13 10:30N 47°48' W 122°30'0 0.0
2018-Jun-13 10:00N 47°48' W 122°30'0 0.0
2018-Jun-13 09:30N 47°48' W 122°30'0 0.0
2018-Jun-13 09:00N 47°48' W 122°30'0 0.0
2018-Jun-13 08:30N 47°48' W 122°30'0 0.0
2018-Jun-13 08:00N 47°48' W 122°30'0 0.0
2018-Jun-13 07:30N 47°48' W 122°30'0 0.0
2018-Jun-13 07:00N 47°48' W 122°30'0 0.0
2018-Jun-13 06:30N 47°48' W 122°30'0 0.0
2018-Jun-13 06:00N 47°48' W 122°30'0 0.0
2018-Jun-13 05:28N 47°48' W 122°30'0 0.0
2018-Jun-13 05:00N 47°48' W 122°30'0 0.0
2018-Jun-13 04:27N 47°48' W 122°30'4 9.4
2018-Jun-13 03:59N 47°49' W 122°23'3 5.4
2018-Jun-13 03:30N 47°48' W 122°27'2 4.0
2018-Jun-13 03:00N 47°48' W 122°30'4 8.8
2018-Jun-13 02:30N 47°49' W 122°23'4 8.6
2018-Jun-13 01:59N 47°48' W 122°30'2 4.2
2018-Jun-13 01:30N 47°48' W 122°27'3 5.2
2018-Jun-13 01:00N 47°49' W 122°23'4 9.0
2018-Jun-13 00:30N 47°48' W 122°30'3 5.2
2018-Jun-13 00:01N 47°48' W 122°26'2 3.7
2018-Jun-12 23:30N 47°49' W 122°23'4 8.5
2018-Jun-12 22:58N 47°48' W 122°30'3 5.5
2018-Jun-12 22:30N 47°48' W 122°26'2 4.0
2018-Jun-12 22:00N 47°49' W 122°23'4 8.9
2018-Jun-12 21:30N 47°48' W 122°30'0 0.4
2018-Jun-12 21:00N 47°48' W 122°29'4 7.1
2018-Jun-12 20:24N 47°49' W 122°23'3 7.3
2018-Jun-12 20:00N 47°48' W 122°27'2 3.5
2018-Jun-12 19:31N 47°48' W 122°30'4 8.7
2018-Jun-12 19:00N 47°49' W 122°23'2 3.1
2018-Jun-12 18:30N 47°49' W 122°25'3 6.0
2018-Jun-12 18:00N 47°48' W 122°30'4 8.5
2018-Jun-12 17:29N 47°49' W 122°23'  
Track history (hours):
 
Tides and Currents Weather Stations Pressure Air Temp Water Temp Dewpoint Dewpoint Depression Visibility Wind Speed Wind Dir Waves Ship Positions

MV Puyallup

Owner: WASHINGTON, STATE OF; DOT, OLYMPIA, WA. More information available from US FCC via Universal Licensing System and Coast Guard Vessel Documentation Center.

Last reported at 2018-Jun-22 17:00 UTC. Time now 2018-Jun-22 17:02 UTC.
Position N 47°49' W 122°23'.

Length 140 m; draft 5.6 m.

Type: Passenger vessel. MMSI: 366759130.

Date/timePositionNaut miles runAvg speedWind from/ knotsBaromVisibWave heightAir tempDewpointWater temp
2018-Jun-22 17:00N 47°49' W 122°23'4 8.9
2018-Jun-22 16:30N 47°48' W 122°30'3 5.5
2018-Jun-22 16:00N 47°49' W 122°26'2 3.6
2018-Jun-22 15:30N 47°49' W 122°23'4 7.4
2018-Jun-22 15:00N 47°48' W 122°28'1 1.6
2018-Jun-22 14:30N 47°48' W 122°30'4 8.9
2018-Jun-22 14:00N 47°49' W 122°23'4 7.7
2018-Jun-22 13:30N 47°47' W 122°28'1 1.6
2018-Jun-22 13:00N 47°48' W 122°30'4 9.1
2018-Jun-22 12:30N 47°49' W 122°23'4 8.2
2018-Jun-22 12:01N 47°47' W 122°29'1 1.0
2018-Jun-22 11:30N 47°48' W 122°30'0 0.0
2018-Jun-22 11:00N 47°48' W 122°30'0 0.0
2018-Jun-22 10:30N 47°48' W 122°30'0 0.0
2018-Jun-22 09:59N 47°48' W 122°30'0 0.0
2018-Jun-22 09:30N 47°48' W 122°30'0 0.0
2018-Jun-22 09:00N 47°48' W 122°30'0 0.0
2018-Jun-22 08:30N 47°48' W 122°30'0 0.0
2018-Jun-22 08:00N 47°48' W 122°30'0 0.0
2018-Jun-22 07:30N 47°48' W 122°30'0 0.0
2018-Jun-22 07:00N 47°48' W 122°30'0 0.0
2018-Jun-22 06:30N 47°48' W 122°30'0 0.0
2018-Jun-22 05:58N 47°48' W 122°30'0 0.0
2018-Jun-22 05:30N 47°48' W 122°30'0 0.0
2018-Jun-22 04:59N 47°48' W 122°30'0 0.0
2018-Jun-22 04:30N 47°48' W 122°30'4 9.0
2018-Jun-22 04:01N 47°49' W 122°23'2 4.3
2018-Jun-22 03:31N 47°48' W 122°26'2 3.6
2018-Jun-22 03:01N 47°48' W 122°29'4 7.8
2018-Jun-22 02:30N 47°49' W 122°23'4 9.0
2018-Jun-22 02:00N 47°48' W 122°30'4 7.1
2018-Jun-22 01:30N 47°49' W 122°25'1 1.9
2018-Jun-22 01:00N 47°49' W 122°23'4 8.4
2018-Jun-22 00:28N 47°48' W 122°30'3 6.5
2018-Jun-22 00:00N 47°48' W 122°25'1 3.0
2018-Jun-21 23:30N 47°49' W 122°23'4 8.5
2018-Jun-21 22:59N 47°48' W 122°30'2 4.8
2018-Jun-21 22:30N 47°49' W 122°27'2 4.5
2018-Jun-21 22:00N 47°49' W 122°23'4 9.0
2018-Jun-21 21:30N 47°48' W 122°30'0 0.6
2018-Jun-21 21:00N 47°48' W 122°29'4 8.4
2018-Jun-21 20:30N 47°49' W 122°23'3 6.4
2018-Jun-21 20:00N 47°48' W 122°28'1 2.8
2018-Jun-21 19:30N 47°48' W 122°30'4 8.9
2018-Jun-21 19:00N 47°49' W 122°23'2 3.9
2018-Jun-21 18:31N 47°48' W 122°26'3 5.1
2018-Jun-21 18:00N 47°48' W 122°30'4 9.1
2018-Jun-21 17:30N 47°49' W 122°23'0 0.4
2018-Jun-21 17:00N 47°49' W 122°23'4 8.6
2018-Jun-21 16:30N 47°48' W 122°30'2 4.7
2018-Jun-21 16:00N 47°48' W 122°26'2 4.3
2018-Jun-21 15:30N 47°49' W 122°23'4 7.4
2018-Jun-21 15:00N 47°47' W 122°28'1 1.7
2018-Jun-21 14:31N 47°48' W 122°29'4 8.8
2018-Jun-21 14:01N 47°49' W 122°23'4 7.3
2018-Jun-21 13:31N 47°48' W 122°28'1 1.8
2018-Jun-21 13:00N 47°48' W 122°30'4 9.1
2018-Jun-21 12:30N 47°49' W 122°23'4 8.5
2018-Jun-21 12:00N 47°48' W 122°29'0 0.7
2018-Jun-21 11:30N 47°48' W 122°30'0 0.0
2018-Jun-21 11:01N 47°48' W 122°30'0 0.0
2018-Jun-21 10:30N 47°48' W 122°30'0 0.0
2018-Jun-21 10:01N 47°48' W 122°30'0 0.0
2018-Jun-21 09:30N 47°48' W 122°30'0 0.0
2018-Jun-21 09:00N 47°48' W 122°30'0 0.0
2018-Jun-21 08:30N 47°48' W 122°30'0 0.0
2018-Jun-21 08:01N 47°48' W 122°30'0 0.0
2018-Jun-21 07:30N 47°48' W 122°30'0 0.0
2018-Jun-21 07:01N 47°48' W 122°30'0 0.0
2018-Jun-21 06:31N 47°48' W 122°30'0 0.0
2018-Jun-21 06:00N 47°48' W 122°30'0 0.0
2018-Jun-21 05:31N 47°48' W 122°30'0 0.0
2018-Jun-21 05:01N 47°48' W 122°30'0 0.0
2018-Jun-21 04:29N 47°48' W 122°30'4 9.3
2018-Jun-21 04:00N 47°49' W 122°23'3 6.9
2018-Jun-21 03:31N 47°48' W 122°28'1 1.1
2018-Jun-21 03:01N 47°48' W 122°27'3 6.0
2018-Jun-21 02:30N 47°49' W 122°23'4 9.0
2018-Jun-21 02:00N 47°48' W 122°30'4 7.3
2018-Jun-21 01:30N 47°49' W 122°24'1 1.7
2018-Jun-21 01:00N 47°49' W 122°23'4 8.9
2018-Jun-21 00:30N 47°48' W 122°30'4 7.4
2018-Jun-21 00:00N 47°49' W 122°25'1 1.9
2018-Jun-20 23:30N 47°49' W 122°23'4 9.0
2018-Jun-20 23:00N 47°48' W 122°30'3 6.5
2018-Jun-20 22:30N 47°49' W 122°25'1 2.6
2018-Jun-20 22:00N 47°49' W 122°23'4 9.0
2018-Jun-20 21:30N 47°48' W 122°30'1 1.3
2018-Jun-20 21:00N 47°47' W 122°29'4 8.0
2018-Jun-20 20:31N 47°49' W 122°23'3 5.8
2018-Jun-20 20:01N 47°48' W 122°27'2 3.5
2018-Jun-20 19:31N 47°48' W 122°30'4 9.0
2018-Jun-20 19:00N 47°49' W 122°23'1 1.6
2018-Jun-20 18:30N 47°49' W 122°24'4 7.3
2018-Jun-20 18:00N 47°48' W 122°30'4 9.0
2018-Jun-20 17:30N 47°49' W 122°23'0 0.4
2018-Jun-20 17:01N 47°49' W 122°23'4 8.6
2018-Jun-20 16:30N 47°48' W 122°30'2 4.7
2018-Jun-20 16:00N 47°48' W 122°26'2 4.3
2018-Jun-20 15:30N 47°49' W 122°23'4 8.8
2018-Jun-20 15:00N 47°48' W 122°30'0 0.2
2018-Jun-20 14:30N 47°48' W 122°29'4 8.7
2018-Jun-20 14:00N 47°49' W 122°23'4 7.9
2018-Jun-20 13:31N 47°48' W 122°29'1 1.3
2018-Jun-20 12:59N 47°48' W 122°30'4 9.4
2018-Jun-20 12:31N 47°49' W 122°23'4 8.5
2018-Jun-20 12:00N 47°48' W 122°29'0 0.7
2018-Jun-20 11:30N 47°48' W 122°30'0 0.0
2018-Jun-20 10:59N 47°48' W 122°30'0 0.0
2018-Jun-20 10:30N 47°48' W 122°30'0 0.0
2018-Jun-20 10:00N 47°48' W 122°30'0 0.0
2018-Jun-20 09:30N 47°48' W 122°30'0 0.0
2018-Jun-20 09:00N 47°48' W 122°30'0 0.0
2018-Jun-20 08:30N 47°48' W 122°30'0 0.0
2018-Jun-20 08:00N 47°48' W 122°30'0 0.0
2018-Jun-20 07:30N 47°48' W 122°30'0 0.0
2018-Jun-20 07:00N 47°48' W 122°30'0 0.0
2018-Jun-20 06:30N 47°48' W 122°30'0 0.0
2018-Jun-20 06:00N 47°48' W 122°30'0 0.0
2018-Jun-20 05:30N 47°48' W 122°30'0 0.0
2018-Jun-20 05:00N 47°48' W 122°30'0 0.0
2018-Jun-20 04:30N 47°48' W 122°30'4 9.0
2018-Jun-20 04:00N 47°49' W 122°23'3 5.1
2018-Jun-20 03:30N 47°48' W 122°27'1 2.3
2018-Jun-20 03:00N 47°48' W 122°28'4 7.3
2018-Jun-20 02:30N 47°49' W 122°23'4 9.0
2018-Jun-20 02:00N 47°48' W 122°30'4 8.8
2018-Jun-20 01:30N 47°49' W 122°23'0 0.2
2018-Jun-20 01:00N 47°49' W 122°23'4 8.8
2018-Jun-20 00:30N 47°48' W 122°30'3 5.8
2018-Jun-20 00:00N 47°49' W 122°26'2 3.2
2018-Jun-19 23:30N 47°49' W 122°23'4 9.0
2018-Jun-19 23:00N 47°48' W 122°30'2 3.8
2018-Jun-19 22:30N 47°49' W 122°27'3 5.3
2018-Jun-19 22:01N 47°49' W 122°23'4 9.0
2018-Jun-19 21:30N 47°48' W 122°30'0 0.0
2018-Jun-19 21:00N 47°48' W 122°30'4 9.1
2018-Jun-19 20:30N 47°49' W 122°23'3 6.5
2018-Jun-19 20:01N 47°48' W 122°28'1 2.7
2018-Jun-19 19:30N 47°48' W 122°30'4 9.0
2018-Jun-19 19:01N 47°49' W 122°23'1 1.8
2018-Jun-19 18:30N 47°49' W 122°24'4 6.8
2018-Jun-19 17:58N 47°48' W 122°30'4 9.9
2018-Jun-19 17:30N 47°49' W 122°23'0 0.1
2018-Jun-19 17:01N 47°49' W 122°23'4 8.6
2018-Jun-19 16:29N 47°48' W 122°30'2 4.9
2018-Jun-19 16:01N 47°48' W 122°26'2 4.3
2018-Jun-19 15:31N 47°49' W 122°23'4 7.7
2018-Jun-19 15:01N 47°48' W 122°29'1 1.4
2018-Jun-19 14:31N 47°48' W 122°30'4 8.9
2018-Jun-19 14:00N 47°49' W 122°23'4 7.7
2018-Jun-19 13:30N 47°48' W 122°29'1 1.4
2018-Jun-19 12:59N 47°48' W 122°30'4 9.4
2018-Jun-19 12:30N 47°49' W 122°23'3 6.9
2018-Jun-19 12:00N 47°48' W 122°28'1 2.0
2018-Jun-19 11:29N 47°48' W 122°30'0 0.0
2018-Jun-19 11:00N 47°48' W 122°30'0 0.0
2018-Jun-19 10:30N 47°48' W 122°30'0 0.0
2018-Jun-19 10:00N 47°48' W 122°30'0 0.0
2018-Jun-19 09:30N 47°48' W 122°30'0 0.0
2018-Jun-19 09:00N 47°48' W 122°30'0 0.0
2018-Jun-19 08:30N 47°48' W 122°30'0 0.0
2018-Jun-19 08:00N 47°48' W 122°30'0 0.0
2018-Jun-19 07:30N 47°48' W 122°30'1 1.6
2018-Jun-19 07:00N 47°48' W 122°28'4 7.4
2018-Jun-19 06:30N 47°49' W 122°23'4 8.8
2018-Jun-19 06:00N 47°48' W 122°30'4 7.5
2018-Jun-19 05:30N 47°49' W 122°24'1 1.5
2018-Jun-19 05:00N 47°49' W 122°23'4 8.7
2018-Jun-19 04:30N 47°48' W 122°30'4 9.1
2018-Jun-19 04:00N 47°49' W 122°23'3 6.0
2018-Jun-19 03:30N 47°48' W 122°27'1 2.6
2018-Jun-19 03:01N 47°48' W 122°29'4 8.4
2018-Jun-19 02:30N 47°49' W 122°23'4 9.1
2018-Jun-19 02:00N 47°48' W 122°30'2 4.9
2018-Jun-19 01:31N 47°48' W 122°26'2 4.1
2018-Jun-19 01:00N 47°49' W 122°23'4 8.7
2018-Jun-19 00:30N 47°48' W 122°30'3 6.7
2018-Jun-19 00:01N 47°49' W 122°25'1 2.7
2018-Jun-18 23:30N 47°49' W 122°23'4 8.9
2018-Jun-18 23:00N 47°48' W 122°30'2 4.5
2018-Jun-18 22:30N 47°48' W 122°26'2 4.5
2018-Jun-18 22:00N 47°49' W 122°23'4 9.0
2018-Jun-18 21:31N 47°48' W 122°30'0 0.1
2018-Jun-18 21:00N 47°48' W 122°30'4 9.2
2018-Jun-18 20:30N 47°49' W 122°23'3 5.2
2018-Jun-18 20:01N 47°48' W 122°27'2 3.8
2018-Jun-18 19:30N 47°48' W 122°30'4 9.2
2018-Jun-18 19:00N 47°49' W 122°23'1 2.1
2018-Jun-18 18:30N 47°49' W 122°25'4 6.9
2018-Jun-18 18:00N 47°48' W 122°30'4 9.2
2018-Jun-18 17:31N 47°49' W 122°23'0 0.0
2018-Jun-18 17:01N 47°49' W 122°23'4 8.6
2018-Jun-18 16:29N 47°48' W 122°30'3 7.1
2018-Jun-18 16:00N 47°49' W 122°25'1 2.2
2018-Jun-18 15:30N 47°49' W 122°23'4 7.7
2018-Jun-18 15:00N 47°47' W 122°28'1 1.5
2018-Jun-18 14:30N 47°48' W 122°30'4 8.9
2018-Jun-18 14:00N 47°49' W 122°23'4 7.6
2018-Jun-18 13:30N 47°47' W 122°28'1 1.7
2018-Jun-18 13:00N 47°48' W 122°30'4 9.1
2018-Jun-18 12:30N 47°49' W 122°23'4 7.6
2018-Jun-18 12:00N 47°48' W 122°28'1 1.5
2018-Jun-18 11:30N 47°48' W 122°30'0 0.0
2018-Jun-18 11:00N 47°48' W 122°30'0 0.0
2018-Jun-18 10:29N 47°48' W 122°30'0 0.0
2018-Jun-18 10:01N 47°48' W 122°30'0 0.0
2018-Jun-18 09:31N 47°48' W 122°30'0 0.0
2018-Jun-18 09:00N 47°48' W 122°30'0 0.0
2018-Jun-18 08:30N 47°48' W 122°30'0 0.0
2018-Jun-18 08:00N 47°48' W 122°30'0 0.0
2018-Jun-18 07:29N 47°48' W 122°30'4 8.3
2018-Jun-18 07:01N 47°49' W 122°24'3 5.5
2018-Jun-18 06:30N 47°48' W 122°28'1 1.6
2018-Jun-18 06:00N 47°47' W 122°27'3 5.9
2018-Jun-18 05:30N 47°49' W 122°23'4 9.0
2018-Jun-18 05:00N 47°48' W 122°30'2 4.0
2018-Jun-18 04:30N 47°48' W 122°27'3 5.3
2018-Jun-18 04:00N 47°49' W 122°23'4 9.0
2018-Jun-18 03:30N 47°48' W 122°30'2 3.2
2018-Jun-18 03:01N 47°48' W 122°27'3 5.8
2018-Jun-18 02:30N 47°49' W 122°23'4 8.8
2018-Jun-18 02:00N 47°48' W 122°30'1 2.6
2018-Jun-18 01:31N 47°48' W 122°28'3 6.6
2018-Jun-18 01:00N 47°49' W 122°23'4 8.9
2018-Jun-18 00:30N 47°48' W 122°30'1 2.9
2018-Jun-18 00:00N 47°47' W 122°28'3 6.6
2018-Jun-17 23:30N 47°49' W 122°23'4 9.0
2018-Jun-17 23:00N 47°48' W 122°30'2 3.7
2018-Jun-17 22:31N 47°48' W 122°27'3 5.3
2018-Jun-17 22:01N 47°49' W 122°23'4 9.0
2018-Jun-17 21:30N 47°48' W 122°30'0 0.5
2018-Jun-17 21:01N 47°48' W 122°29'4 8.6
2018-Jun-17 20:31N 47°49' W 122°23'3 6.1
2018-Jun-17 20:00N 47°48' W 122°27'1 3.0
2018-Jun-17 19:31N 47°48' W 122°30'4 9.0
2018-Jun-17 19:00N 47°49' W 122°23'1 2.4
2018-Jun-17 18:30N 47°49' W 122°25'3 6.6
2018-Jun-17 18:00N 47°48' W 122°30'4 9.0
2018-Jun-17 17:30N 47°49' W 122°23'0 0.0
2018-Jun-17 17:00N 47°49' W 122°23'4 8.9
2018-Jun-17 16:30N 47°48' W 122°30'3 5.2
2018-Jun-17 16:00N 47°48' W 122°26'2 3.8
2018-Jun-17 15:30N 47°49' W 122°23'4 7.9
2018-Jun-17 15:00N 47°47' W 122°29'1 1.6
2018-Jun-17 14:30N 47°48' W 122°30'4 9.0
2018-Jun-17 14:00N 47°49' W 122°23'4 7.6
2018-Jun-17 13:30N 47°48' W 122°28'1 1.6
2018-Jun-17 12:59N 47°48' W 122°30'0 0.0
2018-Jun-17 12:30N 47°48' W 122°30'0 0.0
2018-Jun-17 12:00N 47°48' W 122°30'0 0.0
2018-Jun-17 11:30N 47°48' W 122°30'0 0.0
2018-Jun-17 11:00N 47°48' W 122°30'0 0.0
2018-Jun-17 10:30N 47°48' W 122°30'0 0.0
2018-Jun-17 10:00N 47°48' W 122°30'0 0.0
2018-Jun-17 09:30N 47°48' W 122°30'0 0.0
2018-Jun-17 09:00N 47°48' W 122°30'0 0.0
2018-Jun-17 08:30N 47°48' W 122°30'0 0.0
2018-Jun-17 08:00N 47°48' W 122°30'0 0.1
2018-Jun-17 07:30N 47°48' W 122°30'4 8.6
2018-Jun-17 07:01N 47°49' W 122°24'4 8.6
2018-Jun-17 06:30N 47°48' W 122°30'0 0.0
2018-Jun-17 05:56N 47°48' W 122°30'0 0.0
2018-Jun-17 05:24N 47°48' W 122°30'0 0.0
2018-Jun-17 05:00N 47°48' W 122°30'4 8.5
2018-Jun-17 04:31N 47°49' W 122°24'0 0.9
2018-Jun-17 04:00N 47°49' W 122°23'4 8.6
2018-Jun-17 03:29N 47°48' W 122°30'3 6.8
2018-Jun-17 03:01N 47°49' W 122°25'1 2.6
2018-Jun-17 02:30N 47°49' W 122°23'4 9.0
2018-Jun-17 02:00N 47°48' W 122°30'2 4.8
2018-Jun-17 01:30N 47°49' W 122°26'2 4.3
2018-Jun-17 01:01N 47°49' W 122°23'4 8.1
2018-Jun-17 00:27N 47°48' W 122°30'3 6.3
2018-Jun-17 00:00N 47°49' W 122°26'2 3.4
2018-Jun-16 23:31N 47°49' W 122°23'4 9.0
2018-Jun-16 23:00N 47°48' W 122°30'4 7.0
2018-Jun-16 22:31N 47°49' W 122°25'1 2.0
2018-Jun-16 22:00N 47°49' W 122°23'4 8.9
2018-Jun-16 21:30N 47°48' W 122°30'1 2.2
2018-Jun-16 21:00N 47°48' W 122°28'3 6.9
2018-Jun-16 20:30N 47°49' W 122°23'3 6.4
2018-Jun-16 20:00N 47°48' W 122°28'1 2.7
2018-Jun-16 19:30N 47°48' W 122°30'4 9.1
2018-Jun-16 19:01N 47°49' W 122°23'1 2.0
2018-Jun-16 18:31N 47°49' W 122°25'4 7.0
2018-Jun-16 18:00N 47°48' W 122°30'4 8.9
2018-Jun-16 17:30N 47°49' W 122°23'0 0.2
2018-Jun-16 17:00N 47°49' W 122°23'4 8.8
2018-Jun-16 16:30N 47°48' W 122°30'3 5.3
2018-Jun-16 16:00N 47°48' W 122°26'2 3.9
2018-Jun-16 15:30N 47°49' W 122°23'4 7.8
2018-Jun-16 15:00N 47°47' W 122°29'1 1.6
2018-Jun-16 14:30N 47°48' W 122°30'4 9.0
2018-Jun-16 14:00N 47°49' W 122°23'4 7.6
2018-Jun-16 13:30N 47°47' W 122°28'1 2.0
2018-Jun-16 13:00N 47°48' W 122°30'0 0.0
2018-Jun-16 12:30N 47°48' W 122°30'3 5.5
2018-Jun-16 12:00N 47°46' W 122°27'816.7
2018-Jun-16 11:30N 47°37' W 122°25'4 7.2
2018-Jun-16 11:00N 47°35' W 122°21'0 0.0
2018-Jun-16 10:31N 47°35' W 122°21'0 0.0
2018-Jun-16 10:00N 47°35' W 122°21'0 0.1
2018-Jun-16 09:31N 47°35' W 122°21'612.2
2018-Jun-16 09:00N 47°40' W 122°27'816.1
2018-Jun-16 08:31N 47°48' W 122°29'4 8.0
2018-Jun-16 08:00N 47°49' W 122°23'1 3.0
2018-Jun-16 07:30N 47°49' W 122°25'3 5.4
2018-Jun-16 07:00N 47°48' W 122°29'4 8.2
2018-Jun-16 06:30N 47°49' W 122°23'4 8.9
2018-Jun-16 06:00N 47°48' W 122°30'3 7.0
2018-Jun-16 05:30N 47°49' W 122°25'1 1.8
2018-Jun-16 05:01N 47°48' W 122°25'2 4.2
2018-Jun-16 04:31N 47°47' W 122°28'4 7.5
2018-Jun-16 04:01N 47°49' W 122°23'4 8.9
2018-Jun-16 03:30N 47°48' W 122°30'4 7.8
2018-Jun-16 03:01N 47°49' W 122°24'1 1.2
2018-Jun-16 02:30N 47°49' W 122°23'4 9.0
2018-Jun-16 02:00N 47°48' W 122°30'4 7.8
2018-Jun-16 01:30N 47°49' W 122°24'1 1.4
2018-Jun-16 01:00N 47°49' W 122°23'4 8.9
2018-Jun-16 00:30N 47°48' W 122°30'3 6.8
2018-Jun-16 00:00N 47°48' W 122°25'1 2.3
2018-Jun-15 23:30N 47°49' W 122°23'4 8.4
2018-Jun-15 22:58N 47°48' W 122°30'2 4.6
2018-Jun-15 22:31N 47°48' W 122°27'2 4.7
2018-Jun-15 22:00N 47°49' W 122°23'4 9.1
2018-Jun-15 21:30N 47°48' W 122°30'0 0.5
2018-Jun-15 21:00N 47°48' W 122°29'4 8.6
2018-Jun-15 20:30N 47°49' W 122°23'4 8.7
2018-Jun-15 20:01N 47°48' W 122°29'0 0.4
2018-Jun-15 19:30N 47°48' W 122°30'4 9.1
2018-Jun-15 19:01N 47°49' W 122°23'1 1.9
2018-Jun-15 18:30N 47°49' W 122°25'4 7.1
2018-Jun-15 18:00N 47°48' W 122°30'4 9.1
2018-Jun-15 17:30N 47°49' W 122°23'0 0.3
2018-Jun-15 17:00N 47°49' W 122°23'4 8.8
2018-Jun-15 16:31N 47°48' W 122°30'3 5.1
2018-Jun-15 16:00N 47°49' W 122°26'2 3.9
2018-Jun-15 15:30N 47°49' W 122°23'3 6.8
2018-Jun-15 15:00N 47°48' W 122°28'1 2.3
2018-Jun-15 14:30N 47°48' W 122°30'4 9.0
2018-Jun-15 14:00N 47°49' W 122°23'4 7.1
2018-Jun-15 13:30N 47°48' W 122°28'1 2.1
2018-Jun-15 13:00N 47°48' W 122°30'4 9.0
2018-Jun-15 12:30N 47°49' W 122°23'4 7.6
2018-Jun-15 12:00N 47°48' W 122°28'1 1.6
2018-Jun-15 11:31N 47°48' W 122°30'0 0.0
2018-Jun-15 11:01N 47°48' W 122°30'0 0.0
2018-Jun-15 10:30N 47°48' W 122°30'0 0.0
2018-Jun-15 10:00N 47°48' W 122°30'0 0.0
2018-Jun-15 09:30N 47°48' W 122°30'0 0.0
2018-Jun-15 09:00N 47°48' W 122°30'0 0.0
2018-Jun-15 08:30N 47°48' W 122°30'0 0.0
2018-Jun-15 08:00N 47°48' W 122°30'0 0.0
2018-Jun-15 07:30N 47°48' W 122°30'1 1.1
2018-Jun-15 07:00N 47°48' W 122°29'4 8.1
2018-Jun-15 06:30N 47°49' W 122°23'4 9.0
2018-Jun-15 06:00N 47°48' W 122°30'4 8.0
2018-Jun-15 05:31N 47°49' W 122°24'0 0.6
2018-Jun-15 05:01N 47°49' W 122°24'4 8.5
2018-Jun-15 04:30N 47°48' W 122°30'4 9.0
2018-Jun-15 04:01N 47°49' W 122°23'4 7.5
2018-Jun-15 03:30N 47°48' W 122°28'2 4.0
2018-Jun-15 03:01N 47°49' W 122°26'2 3.6
2018-Jun-15 02:30N 47°49' W 122°23'4 8.7
2018-Jun-15 01:59N 47°48' W 122°30'4 8.5
2018-Jun-15 01:30N 47°49' W 122°24'0 0.8
2018-Jun-15 01:01N 47°49' W 122°23'4 8.9
2018-Jun-15 00:30N 47°48' W 122°30'3 5.6
2018-Jun-15 00:00N 47°48' W 122°26'2 3.4
2018-Jun-14 23:30N 47°49' W 122°23'4 9.0
2018-Jun-14 23:00N 47°48' W 122°30'2 3.3
2018-Jun-14 22:30N 47°48' W 122°27'3 5.7
2018-Jun-14 22:00N 47°49' W 122°23'4 8.9
2018-Jun-14 21:30N 47°48' W 122°30'2 3.1
2018-Jun-14 21:00N 47°48' W 122°27'3 6.1
2018-Jun-14 20:30N 47°49' W 122°23'4 8.9
2018-Jun-14 20:00N 47°48' W 122°30'1 2.8
2018-Jun-14 19:30N 47°48' W 122°28'3 6.3
2018-Jun-14 19:00N 47°49' W 122°23'4 7.7
2018-Jun-14 18:30N 47°47' W 122°28'1 1.9
2018-Jun-14 18:00N 47°48' W 122°30'4 9.0
2018-Jun-14 17:30N 47°49' W 122°23'1 1.8
2018-Jun-14 17:00N 47°49' W 122°24'4 7.3
2018-Jun-14 16:30N 47°48' W 122°30'2 4.3
2018-Jun-14 16:00N 47°48' W 122°27'2 4.7
2018-Jun-14 15:30N 47°49' W 122°23'4 7.7
2018-Jun-14 15:00N 47°47' W 122°28'1 1.6
2018-Jun-14 14:30N 47°48' W 122°30'4 9.0
2018-Jun-14 14:00N 47°49' W 122°23'4 7.8
2018-Jun-14 13:30N 47°48' W 122°29'1 1.3
2018-Jun-14 13:00N 47°48' W 122°30'4 9.0
2018-Jun-14 12:30N 47°49' W 122°23'4 8.5
2018-Jun-14 12:00N 47°47' W 122°29'0 0.8
2018-Jun-14 11:30N 47°48' W 122°30'0 0.0
2018-Jun-14 11:00N 47°48' W 122°30'0 0.0
2018-Jun-14 10:30N 47°48' W 122°30'0 0.0
2018-Jun-14 10:00N 47°48' W 122°30'0 0.0
2018-Jun-14 09:30N 47°48' W 122°30'0 0.0
2018-Jun-14 09:00N 47°48' W 122°30'0 0.0
2018-Jun-14 08:30N 47°48' W 122°30'0 0.0
2018-Jun-14 08:00N 47°48' W 122°30'0 0.0
2018-Jun-14 07:30N 47°48' W 122°30'0 0.0
2018-Jun-14 07:00N 47°48' W 122°30'0 0.0
2018-Jun-14 06:30N 47°48' W 122°30'0 0.0
2018-Jun-14 06:00N 47°48' W 122°30'0 0.0
2018-Jun-14 05:30N 47°48' W 122°30'0 0.0
2018-Jun-14 05:00N 47°48' W 122°30'0 0.0
2018-Jun-14 04:29N 47°48' W 122°30'4 9.5
2018-Jun-14 04:00N 47°49' W 122°23'2 4.7
2018-Jun-14 03:30N 47°48' W 122°26'2 4.1
2018-Jun-14 03:00N 47°48' W 122°29'4 8.6
2018-Jun-14 02:30N 47°49' W 122°23'4 8.8
2018-Jun-14 02:00N 47°48' W 122°30'3 6.8
2018-Jun-14 01:30N 47°48' W 122°25'1 2.3
2018-Jun-14 01:00N 47°49' W 122°23'4 8.9
2018-Jun-14 00:30N 47°48' W 122°30'4 7.4
2018-Jun-14 00:00N 47°49' W 122°24'1 1.8
2018-Jun-13 23:30N 47°49' W 122°23'4 8.9
2018-Jun-13 23:00N 47°48' W 122°30'2 4.4
2018-Jun-13 22:31N 47°48' W 122°26'2 4.6
2018-Jun-13 22:00N 47°49' W 122°23'4 9.0
2018-Jun-13 21:30N 47°48' W 122°30'0 0.1
2018-Jun-13 21:00N 47°48' W 122°30'4 8.9
2018-Jun-13 20:30N 47°49' W 122°23'3 5.4
2018-Jun-13 20:01N 47°48' W 122°27'2 3.6
2018-Jun-13 19:30N 47°48' W 122°30'4 9.0
2018-Jun-13 19:00N 47°49' W 122°23'2 4.1
2018-Jun-13 18:30N 47°48' W 122°26'2 4.9
2018-Jun-13 18:00N 47°48' W 122°30'4 9.0
2018-Jun-13 17:31N 47°49' W 122°23'0 0.0
2018-Jun-13 17:00N 47°49' W 122°23'4 8.9
2018-Jun-13 16:30N 47°48' W 122°30'2 4.8
2018-Jun-13 16:00N 47°49' W 122°26'2 4.3
2018-Jun-13 15:31N 47°49' W 122°23'4 7.1
2018-Jun-13 15:00N 47°48' W 122°28'1 1.7
2018-Jun-13 14:30N 47°48' W 122°29'4 8.7
2018-Jun-13 14:00N 47°49' W 122°23'4 7.5
2018-Jun-13 13:30N 47°48' W 122°28'1 1.4
2018-Jun-13 13:00N 47°48' W 122°29'4 8.5
2018-Jun-13 12:29N 47°49' W 122°23'4 8.3
2018-Jun-13 12:00N 47°48' W 122°29'1 1.2
2018-Jun-13 11:30N 47°48' W 122°30'0 0.0
2018-Jun-13 11:00N 47°48' W 122°30'0 0.0
2018-Jun-13 10:30N 47°48' W 122°30'0 0.0
2018-Jun-13 10:00N 47°48' W 122°30'0 0.0
2018-Jun-13 09:30N 47°48' W 122°30'0 0.0
2018-Jun-13 09:00N 47°48' W 122°30'0 0.0
2018-Jun-13 08:30N 47°48' W 122°30'0 0.0
2018-Jun-13 08:00N 47°48' W 122°30'0 0.0
2018-Jun-13 07:30N 47°48' W 122°30'0 0.0
2018-Jun-13 07:00N 47°48' W 122°30'0 0.0
2018-Jun-13 06:30N 47°48' W 122°30'0 0.0
2018-Jun-13 06:00N 47°48' W 122°30'0 0.0
2018-Jun-13 05:28N 47°48' W 122°30'0 0.0
2018-Jun-13 05:00N 47°48' W 122°30'0 0.0
2018-Jun-13 04:27N 47°48' W 122°30'4 9.4
2018-Jun-13 03:59N 47°49' W 122°23'3 5.4
2018-Jun-13 03:30N 47°48' W 122°27'2 4.0
2018-Jun-13 03:00N 47°48' W 122°30'4 8.8
2018-Jun-13 02:30N 47°49' W 122°23'4 8.6
2018-Jun-13 01:59N 47°48' W 122°30'2 4.2
2018-Jun-13 01:30N 47°48' W 122°27'3 5.2
2018-Jun-13 01:00N 47°49' W 122°23'4 9.0
2018-Jun-13 00:30N 47°48' W 122°30'3 5.2
2018-Jun-13 00:01N 47°48' W 122°26'2 3.7
2018-Jun-12 23:30N 47°49' W 122°23'4 8.5
2018-Jun-12 22:58N 47°48' W 122°30'3 5.5
2018-Jun-12 22:30N 47°48' W 122°26'2 4.0
2018-Jun-12 22:00N 47°49' W 122°23'4 8.9
2018-Jun-12 21:30N 47°48' W 122°30'0 0.4
2018-Jun-12 21:00N 47°48' W 122°29'4 7.1
2018-Jun-12 20:24N 47°49' W 122°23'3 7.3
2018-Jun-12 20:00N 47°48' W 122°27'2 3.5
2018-Jun-12 19:31N 47°48' W 122°30'4 8.7
2018-Jun-12 19:00N 47°49' W 122°23'2 3.1
2018-Jun-12 18:30N 47°49' W 122°25'3 6.0
2018-Jun-12 18:00N 47°48' W 122°30'4 8.5
2018-Jun-12 17:29N 47°49' W 122°23'  

Dump ship's entire track history